Time;durP1;ratioP1;P1;durP2;ratioP2;P2;SDS_P1;SDS_P2;PMS_P1;PMS_P2;Temp;Humidity;BMP_temperature;BMP_pressure;BME280_temperature;BME280_humidity;BME280_pressure;Samples;Min_cycle;Max_cycle;Signal;HPM_P1;HPM_P2
2021/07/29 00:00:20;;;;;;;9.18;5.05;;;15.50;99.90;;;;;;5094893;28;20036;-74
2021/07/29 00:02:46;;;;;;;7.18;4.38;;;15.50;99.90;;;;;;5094993;28;20120;-74
2021/07/29 00:05:12;;;;;;;8.07;4.45;;;15.50;99.90;;;;;;5094662;28;20048;-74
2021/07/29 00:07:38;;;;;;;10.48;4.40;;;15.50;99.90;;;;;;5094886;28;20101;-74
2021/07/29 00:10:05;;;;;;;7.93;4.68;;;15.50;99.90;;;;;;5094532;28;20032;-74
2021/07/29 00:12:32;;;;;;;4.88;3.80;;;15.50;99.90;;;;;;5094783;28;20036;-74
2021/07/29 00:14:58;;;;;;;10.43;4.82;;;15.50;99.90;;;;;;5095182;28;20040;-75
2021/07/29 00:20:08;;;;;;;11.00;4.13;;;15.50;99.90;;;;;;5094436;28;20055;-75
2021/07/29 00:22:34;;;;;;;9.73;4.60;;;15.50;99.90;;;;;;5094257;28;20491;-75
2021/07/29 00:24:59;;;;;;;8.35;4.75;;;15.50;99.90;;;;;;5094747;28;20093;-74
2021/07/29 00:27:25;;;;;;;6.75;4.63;;;15.50;99.90;;;;;;5094248;28;20085;-74
2021/07/29 00:29:57;;;;;;;10.30;4.95;;;15.40;99.90;;;;;;5093203;28;20130;-73
2021/07/29 00:32:23;;;;;;;7.07;4.00;;;15.40;99.90;;;;;;5093190;28;20127;-73
2021/07/29 00:34:48;;;;;;;8.25;3.95;;;15.40;99.90;;;;;;5093976;28;20111;-74
2021/07/29 00:37:14;;;;;;;6.22;4.03;;;15.40;99.90;;;;;;5094243;28;20150;-74
2021/07/29 00:39:40;;;;;;;9.30;4.25;;;15.40;99.90;;;;;;5093814;28;20071;-74
2021/07/29 00:42:05;;;;;;;8.55;3.38;;;15.40;99.90;;;;;;5093923;28;20069;-75
2021/07/29 00:44:34;;;;;;;10.27;3.45;;;15.50;99.90;;;;;;5094331;28;20112;-75
2021/07/29 00:47:01;;;;;;;8.68;3.90;;;15.40;99.90;;;;;;5093877;28;20036;-74
2021/07/29 00:49:27;;;;;;;9.63;4.43;;;15.40;99.90;;;;;;5093708;28;20044;-74
2021/07/29 00:51:53;;;;;;;6.72;4.20;;;15.40;99.90;;;;;;5093918;28;20032;-74
2021/07/29 00:54:18;;;;;;;8.32;3.58;;;15.30;99.90;;;;;;5093754;28;20165;-74
2021/07/29 00:56:45;;;;;;;6.68;3.85;;;15.40;99.90;;;;;;5094420;28;20051;-74
2021/07/29 00:59:12;;;;;;;7.28;3.80;;;15.30;99.90;;;;;;5093455;28;20503;-74
2021/07/29 01:01:37;;;;;;;8.40;3.72;;;15.30;99.90;;;;;;5093114;28;20043;-74
2021/07/29 01:04:03;;;;;;;5.35;3.35;;;15.30;99.90;;;;;;5093623;28;20114;-74
2021/07/29 01:06:29;;;;;;;6.22;3.53;;;15.30;99.90;;;;;;5094249;28;20043;-73
2021/07/29 01:08:59;;;;;;;5.57;3.17;;;15.30;99.90;;;;;;5093845;28;20044;-74
2021/07/29 01:11:24;;;;;;;7.25;3.80;;;15.30;99.90;;;;;;5093833;28;20040;-74
2021/07/29 01:13:53;;;;;;;8.77;3.80;;;15.30;99.90;;;;;;5093479;28;20423;-74
2021/07/29 01:16:19;;;;;;;6.93;3.83;;;15.40;99.90;;;;;;5092485;28;20063;-74
2021/07/29 01:18:44;;;;;;;7.82;3.78;;;15.40;99.90;;;;;;5093436;28;20388;-74
2021/07/29 01:21:10;;;;;;;11.18;4.30;;;15.40;99.90;;;;;;5093708;28;20040;-74
2021/07/29 01:23:36;;;;;;;6.55;4.15;;;15.40;99.90;;;;;;5094078;28;20169;-73
2021/07/29 01:26:01;;;;;;;7.15;3.60;;;15.40;99.90;;;;;;5093261;28;20043;-74
2021/07/29 01:28:27;;;;;;;6.18;3.78;;;15.30;99.90;;;;;;5093863;28;20115;-74
2021/07/29 01:30:52;;;;;;;7.90;4.40;;;15.30;99.90;;;;;;5093558;28;20081;-74
2021/07/29 01:33:19;;;;;;;11.30;3.97;;;15.30;99.90;;;;;;5093674;28;20042;-74
2021/07/29 01:35:44;;;;;;;9.23;4.05;;;15.30;99.90;;;;;;5093252;28;20052;-74
2021/07/29 01:38:10;;;;;;;10.90;4.45;;;15.30;99.90;;;;;;5093300;28;20097;-74
2021/07/29 01:40:36;;;;;;;11.88;3.80;;;15.20;99.90;;;;;;5093541;28;20036;-74
2021/07/29 01:43:02;;;;;;;8.48;3.85;;;15.20;99.90;;;;;;5093293;28;20529;-74
2021/07/29 01:45:27;;;;;;;8.57;4.75;;;15.20;99.90;;;;;;5093461;28;20039;-73
2021/07/29 01:47:53;;;;;;;7.80;4.45;;;15.20;99.90;;;;;;5093508;28;20078;-74
2021/07/29 01:50:18;;;;;;;7.57;3.97;;;15.20;99.90;;;;;;5093248;28;20115;-74
2021/07/29 01:52:44;;;;;;;8.27;4.63;;;15.20;99.90;;;;;;5093627;28;20114;-74
2021/07/29 01:55:10;;;;;;;6.45;4.75;;;15.30;99.90;;;;;;5093664;28;20044;-74
2021/07/29 01:57:37;;;;;;;8.00;4.65;;;15.40;99.90;;;;;;5093488;28;20032;-74
2021/07/29 02:00:05;;;;;;;11.55;4.35;;;15.30;99.90;;;;;;5092928;28;20044;-74
2021/07/29 02:02:31;;;;;;;6.57;4.70;;;15.30;99.90;;;;;;5093179;28;20040;-74
2021/07/29 02:04:58;;;;;;;6.85;3.80;;;15.30;99.90;;;;;;5093538;28;20048;-73
2021/07/29 02:07:24;;;;;;;11.20;3.92;;;15.30;99.90;;;;;;5093017;28;20542;-74
2021/07/29 02:09:50;;;;;;;10.13;5.20;;;15.20;99.90;;;;;;5092921;28;20400;-74
2021/07/29 02:12:15;;;;;;;10.98;5.18;;;15.20;99.90;;;;;;5092890;28;20075;-74
2021/07/29 02:14:41;;;;;;;11.50;5.97;;;15.30;99.90;;;;;;5096801;28;20042;-73
2021/07/29 02:17:06;;;;;;;6.03;4.72;;;15.30;99.90;;;;;;5097143;28;20069;-74
2021/07/29 02:19:32;;;;;;;13.90;4.93;;;15.30;99.90;;;;;;5096788;28;20040;-74
2021/07/29 02:21:58;;;;;;;9.70;4.18;;;15.30;99.90;;;;;;5097235;28;20040;-73
2021/07/29 02:24:24;;;;;;;6.78;3.92;;;15.40;99.90;;;;;;5096825;28;20043;-74
2021/07/29 02:26:50;;;;;;;12.32;4.85;;;15.30;99.90;;;;;;5096732;28;20040;-73
2021/07/29 02:29:16;;;;;;;12.38;4.30;;;15.30;99.90;;;;;;5096827;28;20039;-74
2021/07/29 02:31:41;;;;;;;11.10;4.05;;;15.30;99.90;;;;;;5096466;28;20036;-73
2021/07/29 02:34:07;;;;;;;7.93;3.97;;;15.30;99.90;;;;;;5096503;28;20047;-74
2021/07/29 02:36:33;;;;;;;7.85;3.20;;;15.30;99.90;;;;;;5096984;28;20036;-73
2021/07/29 02:38:59;;;;;;;8.52;2.78;;;15.20;99.90;;;;;;5096831;28;20119;-74
2021/07/29 02:41:24;;;;;;;3.33;2.42;;;15.10;99.90;;;;;;5096272;28;20119;-74
2021/07/29 02:43:50;;;;;;;7.28;2.60;;;15.00;99.90;;;;;;5096597;28;20039;-74
2021/07/29 02:46:16;;;;;;;3.85;2.00;;;14.90;99.90;;;;;;5096313;28;20071;-74
2021/07/29 02:48:42;;;;;;;2.17;1.15;;;14.80;99.90;;;;;;5096336;28;20040;-73
2021/07/29 02:51:07;;;;;;;3.08;1.23;;;14.70;99.90;;;;;;5096206;28;20040;-73
2021/07/29 02:53:34;;;;;;;3.33;1.13;;;14.60;99.90;;;;;;5096003;28;20039;-74
2021/07/29 02:56:00;;;;;;;2.75;1.10;;;14.50;99.90;;;;;;5095971;28;20036;-73
2021/07/29 02:58:26;;;;;;;1.63;0.90;;;14.40;99.90;;;;;;5096189;28;20056;-74
2021/07/29 03:00:53;;;;;;;3.20;1.45;;;14.30;99.90;;;;;;5096034;28;20086;-73
2021/07/29 03:03:19;;;;;;;1.80;1.10;;;14.20;99.90;;;;;;5096647;28;20085;-73
2021/07/29 03:05:45;;;;;;;4.35;0.90;;;14.10;99.90;;;;;;5096473;28;20115;-73
2021/07/29 03:08:11;;;;;;;1.42;0.98;;;14.10;99.90;;;;;;5096489;28;20074;-73
2021/07/29 03:10:37;;;;;;;2.03;0.90;;;14.00;99.90;;;;;;5095352;28;20032;-74
2021/07/29 03:13:04;;;;;;;1.92;1.02;;;14.00;99.90;;;;;;5095688;28;20035;-74
2021/07/29 03:15:31;;;;;;;2.38;0.90;;;13.90;99.90;;;;;;5096039;28;20047;-73
2021/07/29 03:17:57;;;;;;;5.35;1.08;;;13.90;99.90;;;;;;5095895;28;20462;-73
2021/07/29 03:20:23;;;;;;;2.72;0.88;;;13.90;99.90;;;;;;5095326;28;20400;-73
2021/07/29 03:22:49;;;;;;;2.40;1.20;;;13.80;99.90;;;;;;5096223;28;20040;-73
2021/07/29 03:25:15;;;;;;;1.90;0.70;;;13.80;99.90;;;;;;5095065;28;20040;-74
2021/07/29 03:27:40;;;;;;;2.95;0.98;;;13.80;99.90;;;;;;5095691;28;20040;-73
2021/07/29 03:30:06;;;;;;;5.70;1.27;;;13.80;99.90;;;;;;5095193;28;20046;-73
2021/07/29 03:32:32;;;;;;;3.88;0.80;;;13.80;99.90;;;;;;5095820;28;20043;-73
2021/07/29 03:34:58;;;;;;;3.75;1.05;;;13.70;99.90;;;;;;5095267;28;20036;-73
2021/07/29 03:37:23;;;;;;;1.67;0.75;;;13.70;99.90;;;;;;5095892;28;20089;-74
2021/07/29 03:39:49;;;;;;;2.95;0.88;;;13.60;99.90;;;;;;5094996;28;20040;-74
2021/07/29 03:42:15;;;;;;;2.05;1.05;;;13.70;99.90;;;;;;5095376;28;20051;-74
2021/07/29 03:44:41;;;;;;;2.75;0.90;;;13.60;99.90;;;;;;5095284;28;20484;-74
2021/07/29 03:47:07;;;;;;;2.08;0.80;;;13.50;99.90;;;;;;5095130;28;20086;-74
2021/07/29 03:49:36;;;;;;;3.75;0.77;;;13.50;99.90;;;;;;5094992;28;20032;-73
2021/07/29 03:52:03;;;;;;;2.50;0.90;;;13.50;99.90;;;;;;5095002;28;20040;-73
2021/07/29 03:54:29;;;;;;;4.25;0.90;;;13.50;99.90;;;;;;5094962;28;20043;-73
2021/07/29 03:56:55;;;;;;;3.35;1.27;;;13.40;99.90;;;;;;5094809;28;20043;-73
2021/07/29 03:59:21;;;;;;;2.38;0.57;;;13.40;99.90;;;;;;5094643;28;20480;-73
2021/07/29 04:01:47;;;;;;;10.82;1.48;;;13.30;99.90;;;;;;5094730;28;20494;-73
2021/07/29 04:04:13;;;;;;;2.55;1.20;;;13.30;99.90;;;;;;5094791;28;20036;-73
2021/07/29 04:06:38;;;;;;;2.10;0.82;;;13.30;99.90;;;;;;5094952;28;20036;-73
2021/07/29 04:09:08;;;;;;;2.72;1.40;;;13.30;99.90;;;;;;5093363;28;20043;-73
2021/07/29 04:11:34;;;;;;;2.33;0.90;;;13.30;99.90;;;;;;5094840;28;20427;-73
2021/07/29 04:14:00;;;;;;;3.30;1.10;;;13.20;99.90;;;;;;5094879;28;20033;-73
2021/07/29 04:16:26;;;;;;;2.38;1.00;;;13.20;99.90;;;;;;5095002;28;20115;-73
2021/07/29 04:18:51;;;;;;;3.20;1.40;;;13.20;99.90;;;;;;5094658;28;20120;-73
2021/07/29 04:21:17;;;;;;;3.85;1.35;;;13.20;99.90;;;;;;5094736;28;20035;-73
2021/07/29 04:23:43;;;;;;;8.00;1.42;;;13.20;99.90;;;;;;5094374;28;20058;-73
2021/07/29 04:26:09;;;;;;;4.32;1.60;;;13.20;99.90;;;;;;5094915;28;20040;-73
2021/07/29 04:28:35;;;;;;;2.13;1.20;;;13.20;99.90;;;;;;5094450;28;20092;-73
2021/07/29 04:31:00;;;;;;;4.05;1.60;;;13.30;99.90;;;;;;5094554;28;20036;-73
2021/07/29 04:33:28;;;;;;;2.83;1.67;;;13.30;99.90;;;;;;5094371;28;20040;-73
2021/07/29 04:35:54;;;;;;;4.45;1.58;;;13.30;99.90;;;;;;5093191;28;20042;-73
2021/07/29 04:38:20;;;;;;;6.05;1.90;;;13.40;99.90;;;;;;5094319;28;20044;-73
2021/07/29 04:40:45;;;;;;;5.40;2.08;;;13.40;99.90;;;;;;5093884;28;20036;-73
2021/07/29 04:43:11;;;;;;;4.63;1.90;;;13.40;99.90;;;;;;5093542;28;20036;-73
2021/07/29 04:45:36;;;;;;;5.95;2.13;;;13.40;99.90;;;;;;5094486;28;20067;-73
2021/07/29 04:48:03;;;;;;;5.75;1.80;;;13.40;99.90;;;;;;5094036;28;20032;-73
2021/07/29 04:50:29;;;;;;;3.95;1.52;;;13.50;99.90;;;;;;5093569;28;20040;-73
2021/07/29 04:52:55;;;;;;;3.13;2.83;;;13.60;99.90;;;;;;5093846;28;20044;-73
2021/07/29 04:55:24;;;;;;;5.97;2.40;;;13.60;99.90;;;;;;5093646;28;20036;-73
2021/07/29 04:57:49;;;;;;;7.07;2.50;;;13.70;99.90;;;;;;5093810;28;20063;-73
2021/07/29 05:00:15;;;;;;;6.07;3.47;;;13.90;99.90;;;;;;5093321;28;20040;-73
2021/07/29 05:02:41;;;;;;;7.10;2.40;;;14.00;99.90;;;;;;5094412;28;20047;-73
2021/07/29 05:05:07;;;;;;;5.63;2.72;;;14.00;99.90;;;;;;5093727;28;20044;-73
2021/07/29 05:07:33;;;;;;;5.78;2.20;;;14.20;99.90;;;;;;5094175;28;20040;-73
2021/07/29 05:09:59;;;;;;;6.57;2.15;;;14.30;99.90;;;;;;5093695;28;20036;-73
2021/07/29 05:12:24;;;;;;;6.25;1.90;;;14.50;99.90;;;;;;5093274;28;20043;-73
2021/07/29 05:14:56;;;;;;;9.82;2.85;;;14.60;99.90;;;;;;5093681;28;20488;-73
2021/07/29 05:17:23;;;;;;;7.47;2.60;;;14.80;99.90;;;;;;5093523;28;20062;-73
2021/07/29 05:19:48;;;;;;;7.22;2.58;;;14.90;99.90;;;;;;5093599;28;20126;-73
2021/07/29 05:22:15;;;;;;;5.80;2.15;;;15.10;99.90;;;;;;5093541;28;20172;-73
2021/07/29 05:24:40;;;;;;;5.28;2.50;;;15.30;99.90;;;;;;5093386;28;20047;-73
2021/07/29 05:27:06;;;;;;;5.32;2.47;;;15.40;99.90;;;;;;5093412;28;20036;-73
2021/07/29 05:29:35;;;;;;;5.85;2.47;;;15.60;99.90;;;;;;5093104;28;20074;-73
2021/07/29 05:32:01;;;;;;;8.32;2.22;;;15.80;99.90;;;;;;5093442;28;20068;-74
2021/07/29 05:34:28;;;;;;;6.65;2.08;;;16.00;99.90;;;;;;5093220;28;20074;-74
2021/07/29 05:36:54;;;;;;;11.30;3.38;;;16.10;99.90;;;;;;5093352;28;20036;-73
2021/07/29 05:39:20;;;;;;;8.27;2.45;;;16.40;99.90;;;;;;5093039;28;20043;-74
2021/07/29 05:41:45;;;;;;;8.27;2.60;;;16.50;99.90;;;;;;5093146;28;20096;-74
2021/07/29 05:44:12;;;;;;;10.50;3.08;;;16.60;99.90;;;;;;5093249;28;20508;-74
2021/07/29 05:46:38;;;;;;;8.55;2.67;;;16.70;99.90;;;;;;5094476;28;20387;-74
2021/07/29 05:49:03;;;;;;;10.43;2.60;;;16.70;99.90;;;;;;5097247;28;20036;-74
2021/07/29 05:51:29;;;;;;;4.22;2.72;;;16.80;99.90;;;;;;5097232;28;20037;-75
2021/07/29 05:53:55;;;;;;;12.75;3.00;;;17.00;99.90;;;;;;5097403;28;20044;-75
2021/07/29 05:56:20;;;;;;;6.53;2.30;;;17.00;99.90;;;;;;5096095;28;20036;-75
2021/07/29 05:58:46;;;;;;;6.28;2.90;;;17.20;99.90;;;;;;5097305;28;20395;-75
2021/07/29 06:01:12;;;;;;;6.18;2.70;;;17.20;99.90;;;;;;5097115;28;20040;-74
2021/07/29 06:03:38;;;;;;;12.30;3.47;;;17.30;99.90;;;;;;5097054;28;20097;-74
2021/07/29 06:06:04;;;;;;;6.07;2.80;;;17.60;99.90;;;;;;5097324;28;20032;-74
2021/07/29 06:08:29;;;;;;;8.93;2.50;;;17.60;99.90;;;;;;5097171;28;20032;-75
2021/07/29 06:10:55;;;;;;;5.95;2.30;;;17.80;99.90;;;;;;5097161;28;20446;-75
2021/07/29 06:13:20;;;;;;;8.38;2.17;;;17.80;99.90;;;;;;5097006;28;20028;-74
2021/07/29 06:15:46;;;;;;;6.75;1.98;;;18.00;99.90;;;;;;5097451;28;20039;-74
2021/07/29 06:18:13;;;;;;;5.25;2.15;;;18.00;99.90;;;;;;5096935;28;20040;-73
2021/07/29 06:20:40;;;;;;;9.10;2.53;;;18.10;99.90;;;;;;5096559;28;20044;-74
2021/07/29 06:23:05;;;;;;;7.07;2.25;;;18.10;99.90;;;;;;5096667;28;20040;-74
2021/07/29 06:25:31;;;;;;;7.57;2.25;;;18.30;99.90;;;;;;5096656;28;20036;-74
2021/07/29 06:27:57;;;;;;;7.80;1.95;;;18.40;99.90;;;;;;5097287;28;20090;-74
2021/07/29 06:30:22;;;;;;;8.10;2.28;;;18.50;99.90;;;;;;5096252;28;20042;-74
2021/07/29 06:32:48;;;;;;;9.95;2.17;;;18.40;99.90;;;;;;5096729;28;20051;-73
2021/07/29 06:35:14;;;;;;;8.65;1.92;;;18.50;99.90;;;;;;5096769;28;20471;-74
2021/07/29 06:37:40;;;;;;;7.95;2.35;;;18.60;99.90;;;;;;5096865;28;20048;-73
2021/07/29 06:40:06;;;;;;;8.98;2.20;;;18.70;99.90;;;;;;5096218;28;20430;-73
2021/07/29 06:42:32;;;;;;;14.75;2.50;;;18.90;99.90;;;;;;5096974;28;20032;-73
2021/07/29 06:44:58;;;;;;;8.73;2.70;;;18.80;99.90;;;;;;5096404;28;20048;-73
2021/07/29 06:47:24;;;;;;;6.05;2.10;;;19.00;99.90;;;;;;5096246;28;20093;-73
2021/07/29 06:49:51;;;;;;;11.95;2.65;;;19.10;99.90;;;;;;5095930;28;20032;-73
2021/07/29 06:52:16;;;;;;;6.85;2.50;;;19.10;99.90;;;;;;5096366;28;20085;-73
2021/07/29 06:54:42;;;;;;;5.70;2.13;;;19.10;99.90;;;;;;5096595;28;20036;-73
2021/07/29 06:57:09;;;;;;;7.88;2.25;;;19.20;99.90;;;;;;5096639;28;20372;-73
2021/07/29 06:59:35;;;;;;;6.05;2.35;;;19.20;99.90;;;;;;5094886;28;20040;-73
2021/07/29 07:02:01;;;;;;;8.90;2.17;;;19.20;99.90;;;;;;5096212;28;20083;-71
2021/07/29 07:04:29;;;;;;;6.72;2.00;;;19.50;99.90;;;;;;5096038;28;20047;-71
2021/07/29 07:06:55;;;;;;;5.55;1.77;;;19.40;99.90;;;;;;5096542;28;20089;-72
2021/07/29 07:09:21;;;;;;;9.27;2.40;;;19.50;99.90;;;;;;5095540;28;20048;-72
2021/07/29 07:11:46;;;;;;;10.68;2.38;;;19.60;99.90;;;;;;5095677;28;20035;-72
2021/07/29 07:14:12;;;;;;;9.20;3.22;;;19.40;99.90;;;;;;5095907;28;20074;-72
2021/07/29 07:16:38;;;;;;;10.10;2.72;;;19.30;99.90;;;;;;5095705;28;20043;-72
2021/07/29 07:19:05;;;;;;;7.15;1.88;;;19.10;99.90;;;;;;5095424;28;20040;-72
2021/07/29 07:21:31;;;;;;;7.90;2.65;;;19.00;99.90;;;;;;5095974;28;20040;-71
2021/07/29 07:23:57;;;;;;;4.35;1.85;;;18.80;99.90;;;;;;5096221;28;20040;-71
2021/07/29 07:26:25;;;;;;;8.52;2.35;;;18.70;99.90;;;;;;5095417;28;20051;-71
2021/07/29 07:28:51;;;;;;;7.30;2.20;;;18.60;99.90;;;;;;5095165;28;20106;-72
2021/07/29 07:31:19;;;;;;;11.05;2.60;;;18.30;99.90;;;;;;5095349;28;20377;-71
2021/07/29 07:33:46;;;;;;;10.15;2.13;;;18.10;99.90;;;;;;5095737;28;20039;-71
2021/07/29 07:36:11;;;;;;;7.53;2.30;;;18.30;99.90;;;;;;5095174;28;20488;-71
2021/07/29 07:38:37;;;;;;;9.00;3.00;;;18.40;99.90;;;;;;5094865;28;20085;-72
2021/07/29 07:41:07;;;;;;;6.93;2.78;;;18.40;99.90;;;;;;5095092;28;20111;-71
2021/07/29 07:43:33;;;;;;;5.68;2.17;;;18.70;99.90;;;;;;5095560;28;20032;-72
2021/07/29 07:46:00;;;;;;;7.70;2.92;;;18.90;99.90;;;;;;5095174;28;20113;-71
2021/07/29 07:48:26;;;;;;;9.18;2.67;;;19.00;99.90;;;;;;5095414;28;20118;-72
2021/07/29 07:50:56;;;;;;;9.48;2.47;;;19.00;99.90;;;;;;5095010;28;20125;-71
2021/07/29 07:53:26;;;;;;;8.85;2.22;;;18.60;99.90;;;;;;5094040;28;20048;-72
2021/07/29 07:55:53;;;;;;;10.23;2.80;;;18.40;99.90;;;;;;5094882;28;20119;-72
2021/07/29 07:58:19;;;;;;;18.17;4.07;;;18.10;99.90;;;;;;5095097;28;20066;-71
2021/07/29 08:00:45;;;;;;;11.57;2.67;;;17.90;99.90;;;;;;5094576;28;20039;-71
2021/07/29 08:03:11;;;;;;;7.25;2.83;;;17.70;99.90;;;;;;5095499;28;20040;-72
2021/07/29 08:05:38;;;;;;;8.25;2.33;;;17.70;99.90;;;;;;5094260;28;20063;-71
2021/07/29 08:08:08;;;;;;;8.23;2.13;;;18.10;99.90;;;;;;5094608;28;20036;-71
2021/07/29 08:10:38;;;;;;;7.45;2.30;;;17.90;99.90;;;;;;5094167;28;20070;-72
2021/07/29 08:13:05;;;;;;;9.85;3.17;;;17.60;99.90;;;;;;5094474;28;20036;-72
2021/07/29 08:15:31;;;;;;;10.27;3.03;;;17.40;99.90;;;;;;5094767;28;20046;-72
2021/07/29 08:17:57;;;;;;;10.73;3.35;;;17.20;99.90;;;;;;5094986;28;20353;-72
2021/07/29 08:20:26;;;;;;;4.80;2.58;;;17.40;99.90;;;;;;5094688;28;20046;-71
2021/07/29 08:22:52;;;;;;;11.13;3.83;;;17.60;99.90;;;;;;5095078;28;20035;-72
2021/07/29 08:25:22;;;;;;;10.77;2.80;;;18.10;99.90;;;;;;5094485;28;20392;-71
2021/07/29 08:27:52;;;;;;;5.50;2.17;;;18.50;99.90;;;;;;5094626;28;20042;-71
2021/07/29 08:30:22;;;;;;;5.28;2.28;;;18.80;99.90;;;;;;5093877;28;20038;-72
2021/07/29 08:32:51;;;;;;;8.07;2.10;;;19.10;99.90;;;;;;5094191;28;20032;-71
2021/07/29 08:35:16;;;;;;;8.20;2.20;;;19.30;99.90;;;;;;5094182;28;20032;-71
2021/07/29 08:37:45;;;;;;;8.65;2.50;;;19.30;99.90;;;;;;5094176;28;20047;-72
2021/07/29 08:40:19;;;;;;;7.60;2.45;;;19.60;99.90;;;;;;5093725;28;20035;-71
2021/07/29 08:42:46;;;;;;;7.45;2.33;;;19.70;99.90;;;;;;5094402;28;20119;-71
2021/07/29 08:45:12;;;;;;;8.30;2.78;;;19.50;99.90;;;;;;5094222;28;20043;-72
2021/07/29 08:47:39;;;;;;;9.00;3.08;;;19.50;99.90;;;;;;5093946;28;20047;-72
2021/07/29 08:50:07;;;;;;;7.63;2.50;;;19.40;99.90;;;;;;5093792;28;20075;-72
2021/07/29 08:52:33;;;;;;;6.32;2.83;;;19.80;99.90;;;;;;5093782;28;20113;-72
2021/07/29 08:54:59;;;;;;;4.93;2.25;;;19.80;99.90;;;;;;5094107;28;20505;-71
2021/07/29 08:57:34;;;;;;;7.90;2.65;;;19.60;99.90;;;;;;5094052;28;20078;-71
2021/07/29 09:00:11;;;;;;;4.90;1.95;;;19.20;99.90;;;;;;5093313;28;20040;-71
2021/07/29 09:02:37;;;;;;;6.25;2.47;;;18.80;99.90;;;;;;5093840;28;20154;-71
2021/07/29 09:05:12;;;;;;;7.40;2.47;;;18.60;99.90;;;;;;5092800;28;20039;-71
2021/07/29 09:07:39;;;;;;;6.00;2.35;;;18.40;99.90;;;;;;5094147;28;20036;-71
2021/07/29 09:10:25;;;;;;;7.63;2.20;;;18.50;99.90;;;;;;5092638;28;20042;-70
2021/07/29 09:13:17;;;;;;;8.70;2.67;;;18.50;99.90;;;;;;5093419;28;20093;-71
2021/07/29 09:15:47;;;;;;;6.15;2.50;;;18.60;99.90;;;;;;5093787;28;20068;-71
2021/07/29 09:18:17;;;;;;;6.53;2.50;;;18.60;99.90;;;;;;5093985;28;20472;-71
2021/07/29 09:20:43;;;;;;;8.55;2.70;;;18.70;99.90;;;;;;5093574;28;20034;-71
2021/07/29 09:23:26;;;;;;;6.88;2.08;;;19.20;99.90;;;;;;5093447;28;20460;-72
2021/07/29 09:26:01;;;;;;;7.60;2.60;;;19.70;99.90;;;;;;5093618;28;20040;-71
2021/07/29 09:28:37;;;;;;;9.00;2.28;;;19.70;99.90;;;;;;5092039;28;20048;-72
2021/07/29 09:31:22;;;;;;;9.82;2.53;;;19.60;99.90;;;;;;5093594;28;20089;-71
2021/07/29 09:33:59;;;;;;;7.85;1.58;;;19.20;99.90;;;;;;5092933;28;20052;-68
2021/07/29 09:36:25;;;;;;;10.90;2.60;;;19.10;99.90;;;;;;5093736;28;20123;-68
2021/07/29 09:38:51;;;;;;;4.97;1.92;;;18.90;99.90;;;;;;5091985;28;20036;-69
2021/07/29 09:41:25;;;;;;;6.60;2.00;;;18.80;99.90;;;;;;5092202;28;20029;-69
2021/07/29 09:43:54;;;;;;;5.72;2.33;;;18.70;99.90;;;;;;5093129;28;20040;-69
2021/07/29 09:46:20;;;;;;;6.32;2.10;;;18.70;99.90;;;;;;5093917;28;20114;-69
2021/07/29 09:48:46;;;;;;;8.55;2.80;;;18.60;99.90;;;;;;5092940;28;20036;-68
2021/07/29 09:51:14;;;;;;;5.00;1.80;;;18.40;99.90;;;;;;5093268;28;20036;-68
2021/07/29 09:53:41;;;;;;;9.27;2.20;;;18.30;99.90;;;;;;5093333;28;20044;-69
2021/07/29 09:56:11;;;;;;;9.80;2.03;;;18.10;99.90;;;;;;5093663;28;20067;-69
2021/07/29 09:58:39;;;;;;;12.70;2.50;;;18.00;99.90;;;;;;5091768;28;20157;-69
2021/07/29 10:01:06;;;;;;;8.30;2.33;;;18.00;99.90;;;;;;5092987;28;20074;-69
2021/07/29 10:03:34;;;;;;;8.50;2.75;;;18.00;99.90;;;;;;5092740;28;20481;-70
2021/07/29 10:06:06;;;;;;;8.63;3.03;;;18.10;99.90;;;;;;5092879;28;20051;-71
2021/07/29 10:08:38;;;;;;;9.73;2.35;;;18.10;99.90;;;;;;5092580;28;20484;-69
2021/07/29 10:11:10;;;;;;;5.68;2.33;;;18.60;99.90;;;;;;5093324;28;20040;-69
2021/07/29 10:13:38;;;;;;;6.72;2.20;;;19.10;99.90;;;;;;5092863;28;20040;-69
2021/07/29 10:16:42;;;;;;;6.53;2.00;;;19.50;99.90;;;;;;5093143;28;20471;-69
2021/07/29 10:19:08;;;;;;;4.65;1.98;;;19.80;99.90;;;;;;5092699;28;20127;-68
2021/07/29 10:21:36;;;;;;;7.85;2.20;;;20.00;99.90;;;;;;5092945;28;20089;-68
2021/07/29 10:24:07;;;;;;;9.27;2.42;;;20.10;99.90;;;;;;5093156;28;20036;-69
2021/07/29 10:26:35;;;;;;;4.90;1.90;;;19.80;99.90;;;;;;5093085;28;20384;-69
2021/07/29 10:29:19;;;;;;;6.07;1.63;;;19.50;99.90;;;;;;5092647;28;20048;-69
2021/07/29 10:31:55;;;;;;;4.88;1.85;;;19.20;99.90;;;;;;5092889;28;20381;-69
2021/07/29 10:34:27;;;;;;;6.97;1.90;;;19.10;99.90;;;;;;5093174;28;20047;-69
2021/07/29 10:36:55;;;;;;;6.00;2.15;;;19.20;99.90;;;;;;5096664;28;20055;-69
2021/07/29 10:39:20;;;;;;;7.63;1.85;;;19.30;99.90;;;;;;5096204;28;20119;-69
2021/07/29 10:41:48;;;;;;;7.55;1.60;;;19.60;99.90;;;;;;5096288;28;20119;-69
2021/07/29 10:44:34;;;;;;;8.40;1.60;;;19.80;99.90;;;;;;5096292;28;20396;-69
2021/07/29 10:47:01;;;;;;;4.95;1.55;;;19.60;99.90;;;;;;5096331;28;20040;-69
2021/07/29 10:49:50;;;;;;;3.25;1.50;;;19.40;99.90;;;;;;5096210;28;20081;-69
2021/07/29 10:52:16;;;;;;;6.60;1.35;;;19.20;99.70;;;;;;5095911;28;20044;-69
2021/07/29 10:54:44;;;;;;;8.90;1.80;;;19.20;99.90;;;;;;5096032;28;20381;-69
2021/07/29 10:57:12;;;;;;;8.77;1.90;;;19.10;99.90;;;;;;5096136;28;20115;-69
2021/07/29 10:59:38;;;;;;;7.32;1.60;;;19.10;99.90;;;;;;5095970;28;20040;-68
2021/07/29 11:02:09;;;;;;;5.30;1.88;;;19.10;99.90;;;;;;5096263;28;20075;-69
2021/07/29 11:04:54;;;;;;;6.50;1.73;;;19.20;99.90;;;;;;5096667;28;20043;-69
2021/07/29 11:07:20;;;;;;;8.13;1.45;;;19.40;99.90;;;;;;5096032;28;20480;-69
2021/07/29 11:09:47;;;;;;;6.43;1.83;;;19.40;99.90;;;;;;5095636;28;20036;-69
2021/07/29 11:12:15;;;;;;;5.65;1.95;;;19.50;99.90;;;;;;5095948;28;20036;-71
2021/07/29 11:14:41;;;;;;;5.60;2.00;;;19.50;99.90;;;;;;5095957;28;20414;-69
2021/07/29 11:17:07;;;;;;;4.93;1.77;;;19.50;99.90;;;;;;5096203;28;20036;-69
2021/07/29 11:19:46;;;;;;;7.03;1.65;;;19.60;99.90;;;;;;5095654;28;20381;-69
2021/07/29 11:22:12;;;;;;;5.95;1.50;;;19.80;99.90;;;;;;5095814;28;20047;-69
2021/07/29 11:24:38;;;;;;;4.30;1.60;;;19.90;99.90;;;;;;5095805;28;20372;-69
2021/07/29 11:27:07;;;;;;;7.95;2.38;;;20.20;99.90;;;;;;5095801;28;20054;-69
2021/07/29 11:29:35;;;;;;;4.90;1.40;;;20.10;99.90;;;;;;5095393;28;20044;-69
2021/07/29 11:32:06;;;;;;;3.60;1.58;;;19.80;99.90;;;;;;5095463;28;20042;-68
2021/07/29 11:34:47;;;;;;;6.75;1.67;;;19.50;99.90;;;;;;5095754;28;20075;-69
2021/07/29 11:37:15;;;;;;;5.53;1.58;;;19.30;99.90;;;;;;5095749;28;20040;-69
2021/07/29 11:39:50;;;;;;;8.45;1.80;;;19.00;99.90;;;;;;5094985;28;20036;-68
2021/07/29 11:42:16;;;;;;;6.55;1.60;;;18.90;99.90;;;;;;5095463;28;20055;-68
2021/07/29 11:44:44;;;;;;;6.85;1.98;;;18.90;99.90;;;;;;5094862;28;20064;-68
2021/07/29 11:47:10;;;;;;;6.95;1.80;;;18.90;99.90;;;;;;5095155;28;20032;-68
2021/07/29 11:49:50;;;;;;;7.32;1.70;;;19.00;99.90;;;;;;5094748;28;20071;-68
2021/07/29 11:52:18;;;;;;;8.95;1.92;;;18.90;99.90;;;;;;5095111;28;20103;-68
2021/07/29 11:54:44;;;;;;;7.28;1.85;;;18.90;99.90;;;;;;5094876;28;20071;-68
2021/07/29 11:57:10;;;;;;;5.03;1.83;;;18.90;99.90;;;;;;5095625;28;20437;-68
2021/07/29 11:59:41;;;;;;;7.88;1.75;;;19.00;99.90;;;;;;5095013;28;20077;-68
2021/07/29 12:02:08;;;;;;;6.55;1.75;;;19.10;99.90;;;;;;5094797;28;20404;-68
2021/07/29 12:04:37;;;;;;;7.30;1.70;;;19.10;99.90;;;;;;5095100;28;20036;-68
2021/07/29 12:07:04;;;;;;;5.85;1.60;;;18.90;99.90;;;;;;5094732;28;20088;-68
2021/07/29 12:09:34;;;;;;;6.57;1.70;;;18.90;99.90;;;;;;5094778;28;20031;-68
2021/07/29 12:12:03;;;;;;;5.35;1.50;;;19.00;99.90;;;;;;5094617;28;20040;-68
2021/07/29 12:14:29;;;;;;;5.45;1.35;;;19.20;99.90;;;;;;5094683;28;20043;-68
2021/07/29 12:16:55;;;;;;;3.50;1.50;;;19.50;99.90;;;;;;5094842;28;20462;-68
2021/07/29 12:19:22;;;;;;;4.80;1.75;;;19.70;99.90;;;;;;5094145;28;20040;-68
2021/07/29 12:21:49;;;;;;;4.22;1.52;;;19.90;99.90;;;;;;5094354;28;20484;-67
2021/07/29 12:24:19;;;;;;;4.90;1.42;;;20.20;99.90;;;;;;5094343;28;20040;-66
2021/07/29 12:27:06;;;;;;;6.40;1.75;;;20.40;99.10;;;;;;5094650;28;20051;-66
2021/07/29 12:29:43;;;;;;;4.63;1.27;;;20.40;98.20;;;;;;5093865;28;20115;-66
2021/07/29 12:32:21;;;;;;;5.88;1.90;;;20.30;98.60;;;;;;5094966;28;20411;-66
2021/07/29 12:34:48;;;;;;;8.18;2.13;;;20.30;97.60;;;;;;5094617;28;20076;-66
2021/07/29 12:37:26;;;;;;;7.40;1.75;;;20.30;98.50;;;;;;5094080;28;20561;-69
2021/07/29 12:39:55;;;;;;;3.65;1.35;;;20.30;99.10;;;;;;5094280;28;20047;-68
2021/07/29 12:42:23;;;;;;;5.38;2.00;;;20.10;98.70;;;;;;5094301;28;20044;-68
2021/07/29 12:45:00;;;;;;;4.13;1.80;;;20.00;99.20;;;;;;5094723;28;20540;-68
2021/07/29 12:47:27;;;;;;;6.00;2.00;;;20.10;98.60;;;;;;5093927;28;20052;-68
2021/07/29 12:49:55;;;;;;;5.10;1.80;;;20.00;99.40;;;;;;5094017;28;20051;-68